Clipper Bari-star — 3FHV2 — position and weather

sailwx.info

Track history (hours):
 
Tides and Currents Weather Stations Pressure Air Temp Water Temp Dewpoint Dewpoint Depression Visibility Wind Speed Wind Dir Waves Ship Positions

Clipper Bari-star

Last reported at 2018-Jul-21 19:25 UTC. Time now 2018-Jul-21 21:23 UTC.
Position N 32°29' W 010°39'.

Length 180 m; draft 10.3 m.

Type: Cargo ship. MMSI: 354180000.

Date/timePositionNaut miles runAvg speedWind from/ knotsBaromVisibWave heightAir tempDewpointWater temp
2018-Jul-21 19:25N 32°29' W 010°39'24013.2
2018-Jul-21 01:11N 35°08' W 007°02'212.7
2018-Jul-21 01:00N 35°09' W 007°00'712.7
2018-Jul-21 00:28N 35°13' W 006°54'912.6
2018-Jul-20 23:44N 35°19' W 006°45'3512.6
2018-Jul-20 20:56N 35°43' W 006°13'613.1
2018-Jul-20 20:28N 35°47' W 006°07'713.1
2018-Jul-20 19:54N 35°51' W 006°00'612.3
2018-Jul-20 19:27N 35°55' W 005°56'512.1
2018-Jul-20 19:00N 35°57' W 005°49'612.3
2018-Jul-20 18:31N 35°58' W 005°42'612.0
2018-Jul-20 18:00N 35°59' W 005°34'510.6
2018-Jul-20 17:30N 36°00' W 005°28'4 8.8
2018-Jul-20 17:00N 36°04' W 005°24'5 9.4
2018-Jul-20 16:30N 36°08' W 005°22'0 0.5
2018-Jul-20 15:58N 36°08' W 005°22'0 0.1
2018-Jul-20 14:25N 36°08' W 005°22'2 0.1
2018-Jul-19 19:49N 36°06' W 005°22'1 3.1
2018-Jul-19 19:27N 36°06' W 005°21'1 1.9
2018-Jul-19 19:00N 36°05' W 005°20'219 7.9
2018-Jul-18 15:26N 36°36' W 000°51'613.4
2018-Jul-18 14:59N 36°37' W 000°44'4613.0
2018-Jul-18 11:28N 36°45' E 000°13'1611.2
2018-Jul-18 10:03N 36°47' E 000°32'211.4
2018-Jul-18 09:54N 36°47' E 000°34'8812.3
2018-Jul-18 02:47N 37°01' E 002°23'412.7
2018-Jul-18 02:29N 37°01' E 002°27'712.8
2018-Jul-18 01:58N 37°02' E 002°36'613.0
2018-Jul-18 01:30N 37°04' E 002°43'2013.0
2018-Jul-18 00:00N 37°06' E 003°08'713.3
2018-Jul-17 23:29N 37°06' E 003°16'713.6
2018-Jul-17 22:56N 37°07' E 003°25'1513.6
2018-Jul-17 21:52N 37°08' E 003°43'2413.1
2018-Jul-17 20:04N 37°09' E 004°13'112.9
2018-Jul-17 20:00N 37°09' E 004°14'612.8
2018-Jul-17 19:30N 37°10' E 004°22'1212.8
2018-Jul-17 18:35N 37°11' E 004°37'112.8
2018-Jul-17 18:29N 37°11' E 004°38'34712.1
2018-Jul-16 13:53N 37°08' E 011°54'512.7
2018-Jul-16 13:30N 37°05' E 011°59'1412.7
2018-Jul-16 12:23N 37°00' E 012°15'513.3
2018-Jul-16 12:00N 36°59' E 012°21'712.9
2018-Jul-16 11:30N 36°57' E 012°29'613.0
2018-Jul-16 11:00N 36°55' E 012°37'612.7
2018-Jul-16 10:31N 36°53' E 012°44'612.5
2018-Jul-16 10:01N 36°51' E 012°52'612.4
2018-Jul-16 09:30N 36°50' E 012°59'713.0
2018-Jul-16 09:00N 36°48' E 013°07'612.9
2018-Jul-16 08:30N 36°46' E 013°15'712.8
2018-Jul-16 07:59N 36°44' E 013°22'612.5
2018-Jul-16 07:30N 36°42' E 013°30'612.3
2018-Jul-16 07:00N 36°40' E 013°37'612.4
2018-Jul-16 06:30N 36°39' E 013°45'612.4
2018-Jul-16 06:00N 36°37' E 013°52'  
Track history (hours):
 
Tides and Currents Weather Stations Pressure Air Temp Water Temp Dewpoint Dewpoint Depression Visibility Wind Speed Wind Dir Waves Ship Positions

Clipper Bari-star

Last reported at 2018-Jul-21 19:25 UTC. Time now 2018-Jul-21 21:23 UTC.
Position N 32°29' W 010°39'.

Length 180 m; draft 10.3 m.

Type: Cargo ship. MMSI: 354180000.

Date/timePositionNaut miles runAvg speedWind from/ knotsBaromVisibWave heightAir tempDewpointWater temp
2018-Jul-21 19:25N 32°29' W 010°39'24013.2
2018-Jul-21 01:11N 35°08' W 007°02'212.7
2018-Jul-21 01:00N 35°09' W 007°00'712.7
2018-Jul-21 00:28N 35°13' W 006°54'912.6
2018-Jul-20 23:44N 35°19' W 006°45'3512.6
2018-Jul-20 20:56N 35°43' W 006°13'613.1
2018-Jul-20 20:28N 35°47' W 006°07'713.1
2018-Jul-20 19:54N 35°51' W 006°00'612.3
2018-Jul-20 19:27N 35°55' W 005°56'512.1
2018-Jul-20 19:00N 35°57' W 005°49'612.3
2018-Jul-20 18:31N 35°58' W 005°42'612.0
2018-Jul-20 18:00N 35°59' W 005°34'510.6
2018-Jul-20 17:30N 36°00' W 005°28'4 8.8
2018-Jul-20 17:00N 36°04' W 005°24'5 9.4
2018-Jul-20 16:30N 36°08' W 005°22'0 0.5
2018-Jul-20 15:58N 36°08' W 005°22'0 0.1
2018-Jul-20 14:25N 36°08' W 005°22'2 0.1
2018-Jul-19 19:49N 36°06' W 005°22'1 3.1
2018-Jul-19 19:27N 36°06' W 005°21'1 1.9
2018-Jul-19 19:00N 36°05' W 005°20'219 7.9
2018-Jul-18 15:26N 36°36' W 000°51'613.4
2018-Jul-18 14:59N 36°37' W 000°44'4613.0
2018-Jul-18 11:28N 36°45' E 000°13'1611.2
2018-Jul-18 10:03N 36°47' E 000°32'211.4
2018-Jul-18 09:54N 36°47' E 000°34'8812.3
2018-Jul-18 02:47N 37°01' E 002°23'412.7
2018-Jul-18 02:29N 37°01' E 002°27'712.8
2018-Jul-18 01:58N 37°02' E 002°36'613.0
2018-Jul-18 01:30N 37°04' E 002°43'2013.0
2018-Jul-18 00:00N 37°06' E 003°08'713.3
2018-Jul-17 23:29N 37°06' E 003°16'713.6
2018-Jul-17 22:56N 37°07' E 003°25'1513.6
2018-Jul-17 21:52N 37°08' E 003°43'2413.1
2018-Jul-17 20:04N 37°09' E 004°13'112.9
2018-Jul-17 20:00N 37°09' E 004°14'612.8
2018-Jul-17 19:30N 37°10' E 004°22'1212.8
2018-Jul-17 18:35N 37°11' E 004°37'112.8
2018-Jul-17 18:29N 37°11' E 004°38'34712.1
2018-Jul-16 13:53N 37°08' E 011°54'512.7
2018-Jul-16 13:30N 37°05' E 011°59'1412.7
2018-Jul-16 12:23N 37°00' E 012°15'513.3
2018-Jul-16 12:00N 36°59' E 012°21'712.9
2018-Jul-16 11:30N 36°57' E 012°29'613.0
2018-Jul-16 11:00N 36°55' E 012°37'612.7
2018-Jul-16 10:31N 36°53' E 012°44'612.5
2018-Jul-16 10:01N 36°51' E 012°52'612.4
2018-Jul-16 09:30N 36°50' E 012°59'713.0
2018-Jul-16 09:00N 36°48' E 013°07'612.9
2018-Jul-16 08:30N 36°46' E 013°15'712.8
2018-Jul-16 07:59N 36°44' E 013°22'612.5
2018-Jul-16 07:30N 36°42' E 013°30'612.3
2018-Jul-16 07:00N 36°40' E 013°37'612.4
2018-Jul-16 06:30N 36°39' E 013°45'612.4
2018-Jul-16 06:00N 36°37' E 013°52'  

Dump ship's entire track history